createdAt,value
2022-10-17T00:00:39.634Z,190.53
2022-10-17T00:03:08.921Z,107.83
2022-10-17T00:05:41.064Z,74.50
2022-10-17T00:08:09.174Z,17.60
2022-10-17T00:10:37.443Z,13.70
2022-10-17T00:13:05.588Z,4.20
2022-10-17T00:15:33.610Z,7.27
2022-10-17T00:18:03.450Z,16.30
2022-10-17T00:20:35.524Z,122.70
2022-10-17T00:23:03.735Z,70.60
2022-10-17T00:25:31.703Z,338.33
2022-10-17T00:27:59.663Z,143.07
2022-10-17T00:30:27.643Z,133.30
2022-10-17T00:32:55.664Z,82.80
2022-10-17T00:35:23.603Z,67.17
2022-10-17T00:37:52.995Z,202.87
2022-10-17T00:40:21.015Z,158.87
2022-10-17T00:42:51.149Z,139.87
2022-10-17T00:45:24.203Z,86.60
2022-10-17T00:47:56.410Z,153.10
2022-10-17T00:50:25.744Z,53.37
2022-10-17T00:52:58.959Z,26.03
2022-10-17T00:55:29.642Z,8.10
2022-10-17T00:57:58.799Z,5.80
2022-10-17T01:00:26.911Z,4.20
2022-10-17T01:02:54.902Z,9.97
2022-10-17T01:05:23.253Z,26.60
2022-10-17T01:07:53.897Z,6.90
2022-10-17T01:10:25.756Z,11.77
2022-10-17T01:13:05.345Z,20.90
2022-10-17T01:15:44.247Z,7.47
2022-10-17T01:18:28.824Z,222.67
2022-10-17T01:21:23.056Z,275.77
2022-10-17T01:24:33.014Z,186.90
2022-10-17T01:27:44.714Z,310.67
2022-10-17T01:30:45.958Z,124.03
2022-10-17T01:33:21.053Z,20.43
2022-10-17T01:35:55.963Z,10.70
2022-10-17T01:38:31.612Z,25.57
2022-10-17T01:41:04.264Z,7.13
2022-10-17T01:43:38.609Z,9.23
2022-10-17T01:46:12.611Z,7.37
2022-10-17T01:48:44.991Z,12.80
2022-10-17T01:51:18.995Z,12.73
2022-10-17T01:53:53.095Z,6.20
2022-10-17T01:56:25.840Z,7.13
2022-10-17T01:58:58.055Z,5.30
2022-10-17T02:01:27.779Z,3.47
2022-10-17T02:03:59.133Z,3.60
2022-10-17T02:06:28.719Z,4.50
2022-10-17T02:08:57.719Z,3.40
2022-10-17T02:11:27.679Z,5.70
2022-10-17T02:14:15.345Z,5.10
2022-10-17T02:16:53.270Z,8.50
2022-10-17T02:19:41.979Z,7.73
2022-10-17T02:22:19.393Z,7.37
2022-10-17T02:24:53.511Z,8.43
2022-10-17T02:27:29.819Z,8.07
2022-10-17T02:30:02.555Z,14.23
2022-10-17T02:32:39.506Z,4.63
2022-10-17T02:35:12.514Z,6.60
2022-10-17T02:37:42.955Z,3.90
2022-10-17T02:40:14.200Z,3.53
2022-10-17T02:42:46.071Z,7.57
2022-10-17T02:45:15.747Z,4.93
2022-10-17T02:47:52.276Z,10.70
2022-10-17T02:50:25.022Z,4.97
2022-10-17T02:52:59.017Z,8.40
2022-10-17T02:55:31.852Z,85.37
2022-10-17T02:58:02.615Z,100.63
2022-10-17T03:00:32.066Z,217.53
2022-10-17T03:03:00.269Z,260.30
2022-10-17T03:05:30.778Z,297.63
2022-10-17T03:08:00.638Z,210.83
2022-10-17T03:10:28.634Z,201.60
2022-10-17T03:12:56.655Z,249.93
2022-10-17T03:15:24.952Z,90.93
2022-10-17T03:17:52.939Z,3.80
2022-10-17T03:20:21.019Z,3.20
2022-10-17T03:22:50.430Z,3.63
2022-10-17T03:25:18.410Z,18.90
2022-10-17T03:27:49.238Z,139.63
2022-10-17T03:30:17.402Z,209.77
2022-10-17T03:32:45.536Z,46.27
2022-10-17T03:35:14.827Z,14.67
2022-10-17T03:37:45.973Z,30.73
2022-10-17T03:40:15.683Z,6.90
2022-10-17T03:42:44.823Z,32.27
2022-10-17T03:45:12.850Z,14.53
2022-10-17T03:47:40.939Z,69.40
2022-10-17T03:50:09.694Z,75.87
2022-10-17T03:52:39.718Z,22.90
2022-10-17T03:55:08.359Z,104.97
2022-10-17T03:57:40.174Z,184.40
2022-10-17T04:00:12.777Z,110.40
2022-10-17T04:02:44.801Z,111.77
2022-10-17T04:05:18.798Z,83.50
2022-10-17T04:07:47.469Z,85.33
2022-10-17T04:10:17.579Z,25.90
2022-10-17T04:12:47.079Z,4.10
2022-10-17T04:15:15.286Z,8.77
2022-10-17T04:17:43.292Z,6.23
2022-10-17T04:20:12.051Z,4.50
2022-10-17T04:22:40.195Z,4.20
2022-10-17T04:25:08.595Z,5.90
2022-10-17T04:27:40.317Z,20.03
2022-10-17T04:30:10.566Z,5.63
2022-10-17T04:32:39.507Z,5.63
2022-10-17T04:35:15.110Z,4.90
2022-10-17T04:37:47.857Z,16.07
2022-10-17T04:40:21.063Z,24.83
2022-10-17T04:42:49.795Z,42.53
2022-10-17T04:45:22.851Z,97.70
2022-10-17T04:47:56.250Z,21.27
2022-10-17T04:50:25.056Z,95.77
2022-10-17T04:53:13.058Z,169.77
2022-10-17T04:55:41.115Z,190.47
2022-10-17T04:58:09.673Z,139.60
2022-10-17T05:00:39.796Z,119.30
2022-10-17T05:03:22.846Z,59.57
2022-10-17T05:05:50.906Z,54.03
2022-10-17T05:08:19.182Z,18.93
2022-10-17T05:10:47.479Z,33.60
2022-10-17T05:13:15.578Z,27.60
2022-10-17T05:15:45.376Z,30.17
2022-10-17T05:18:14.123Z,13.63
2022-10-17T05:20:44.058Z,5.10
2022-10-17T05:23:12.044Z,15.60
2022-10-17T05:25:43.363Z,8.27
2022-10-17T05:28:12.505Z,8.80
2022-10-17T05:30:42.681Z,4.37
2022-10-17T05:33:12.596Z,4.50
2022-10-17T05:35:41.533Z,8.23
2022-10-17T05:38:09.936Z,3.70
2022-10-17T05:40:39.669Z,4.70
2022-10-17T05:43:07.777Z,3.00
2022-10-17T05:45:37.011Z,3.00
2022-10-17T05:48:05.511Z,6.10
2022-10-17T05:50:36.149Z,15.07
2022-10-17T05:53:10.051Z,53.87
2022-10-17T05:55:44.275Z,152.80
2022-10-17T05:58:21.744Z,43.10
2022-10-17T06:00:51.726Z,36.13
2022-10-17T06:03:19.714Z,36.40
2022-10-17T06:05:49.434Z,52.73
2022-10-17T06:08:17.853Z,12.70
2022-10-17T06:10:48.965Z,27.43
2022-10-17T06:13:17.022Z,17.63
2022-10-17T06:15:49.788Z,3.50
2022-10-17T06:18:17.798Z,5.80
2022-10-17T06:20:46.214Z,4.53
2022-10-17T06:23:17.209Z,6.40
2022-10-17T06:26:00.615Z,4.17
2022-10-17T06:28:30.271Z,3.70
2022-10-17T06:30:59.005Z,8.30
2022-10-17T06:33:28.029Z,4.50
2022-10-17T06:35:57.129Z,7.07
2022-10-17T06:38:27.944Z,5.40
2022-10-17T06:41:04.870Z,6.13
2022-10-17T06:43:32.969Z,6.67
2022-10-17T06:46:21.063Z,7.60
2022-10-17T06:48:57.133Z,6.50
2022-10-17T06:51:40.999Z,5.63
2022-10-17T06:54:12.855Z,6.00
2022-10-17T06:56:59.513Z,6.57
2022-10-17T06:59:39.968Z,9.93
2022-10-17T07:02:12.508Z,11.83
2022-10-17T07:04:40.500Z,10.40
2022-10-17T07:07:09.433Z,11.90
2022-10-17T07:09:39.009Z,17.80
2022-10-17T07:12:08.446Z,11.43
2022-10-17T07:14:36.609Z,9.80
2022-10-17T07:17:05.226Z,8.67
2022-10-17T07:19:34.220Z,8.83
2022-10-17T07:22:02.246Z,12.70
2022-10-17T07:24:31.313Z,8.40
2022-10-17T07:27:09.653Z,11.47
2022-10-17T07:29:37.775Z,9.80
2022-10-17T07:32:15.312Z,14.10
2022-10-17T07:34:43.533Z,11.07
2022-10-17T07:37:12.376Z,11.37
2022-10-17T07:39:43.733Z,7.57
2022-10-17T07:42:14.439Z,14.90
2022-10-17T07:44:42.497Z,10.53
2022-10-17T07:47:11.298Z,10.13
2022-10-17T07:49:42.478Z,18.23
2022-10-17T07:52:11.294Z,7.80
2022-10-17T07:54:39.759Z,7.77
2022-10-17T07:57:08.244Z,11.63
2022-10-17T07:59:38.877Z,9.40
2022-10-17T08:02:08.052Z,11.83
2022-10-17T08:04:36.679Z,8.90
2022-10-17T08:07:19.752Z,7.97
2022-10-17T08:09:50.067Z,12.17
2022-10-17T08:12:18.503Z,10.27
2022-10-17T08:14:48.142Z,12.77
2022-10-17T08:17:16.216Z,14.37
2022-10-17T08:19:44.308Z,11.83
2022-10-17T08:22:12.341Z,13.40
2022-10-17T08:24:40.397Z,13.30
2022-10-17T08:27:11.389Z,12.23
2022-10-17T08:29:39.772Z,18.00
2022-10-17T08:32:10.517Z,13.20
2022-10-17T08:34:38.596Z,11.80
2022-10-17T08:37:06.733Z,14.30
2022-10-17T08:39:34.824Z,10.60
2022-10-17T08:42:24.327Z,14.73
2022-10-17T08:45:01.299Z,11.87
2022-10-17T08:47:37.040Z,10.47
2022-10-17T08:50:08.599Z,15.23
2022-10-17T08:52:41.212Z,15.60
2022-10-17T08:55:17.448Z,12.40
2022-10-17T08:57:45.918Z,12.67
2022-10-17T09:00:19.208Z,8.93
2022-10-17T09:03:02.015Z,9.80
2022-10-17T09:05:40.579Z,13.20
2022-10-17T09:08:20.096Z,11.90
2022-10-17T09:10:59.829Z,9.37
2022-10-17T09:13:49.362Z,6.50
2022-10-17T09:16:40.636Z,23.33
2022-10-17T09:19:16.593Z,18.23
2022-10-17T09:21:49.589Z,5.00
2022-10-17T09:24:22.423Z,7.70
2022-10-17T09:26:52.768Z,4.57
2022-10-17T09:29:24.537Z,5.00
2022-10-17T09:32:03.366Z,5.40
2022-10-17T09:34:34.001Z,6.30
2022-10-17T09:37:03.499Z,12.13
2022-10-17T09:39:33.006Z,9.70
2022-10-17T09:42:02.535Z,4.13
2022-10-17T09:44:33.419Z,7.03
2022-10-17T09:47:14.540Z,7.93
2022-10-17T09:49:46.162Z,4.27
2022-10-17T09:52:17.567Z,3.50
2022-10-17T09:54:47.991Z,4.77
2022-10-17T09:57:17.288Z,8.17
2022-10-17T09:59:48.135Z,7.63
2022-10-17T10:02:22.300Z,10.37
2022-10-17T10:05:05.496Z,4.30
2022-10-17T10:07:37.110Z,4.90
2022-10-17T10:10:07.888Z,3.93
2022-10-17T10:12:38.372Z,6.87
2022-10-17T10:15:33.367Z,4.23
2022-10-17T10:18:01.451Z,4.97
2022-10-17T10:20:33.890Z,7.90
2022-10-17T10:23:17.266Z,9.77
2022-10-17T10:25:54.585Z,3.40
2022-10-17T10:28:26.899Z,3.37
2022-10-17T10:30:56.686Z,4.60
2022-10-17T10:33:28.536Z,6.43
2022-10-17T10:36:01.525Z,4.90
2022-10-17T10:38:31.310Z,6.87
2022-10-17T10:41:05.111Z,3.40
2022-10-17T10:43:37.815Z,8.27
2022-10-17T10:46:16.990Z,5.03
2022-10-17T10:48:52.388Z,12.37
2022-10-17T10:51:27.674Z,4.93
2022-10-17T10:54:02.458Z,8.87
2022-10-17T10:56:35.836Z,5.27
2022-10-17T10:59:10.357Z,4.90
2022-10-17T11:01:47.974Z,5.60
2022-10-17T11:04:27.086Z,17.83
2022-10-17T11:07:01.375Z,5.93
2022-10-17T11:09:43.968Z,5.70
2022-10-17T11:12:17.949Z,8.30
2022-10-17T11:14:52.914Z,6.60
2022-10-17T11:17:30.355Z,6.60
2022-10-17T11:20:07.888Z,3.77
2022-10-17T11:22:40.438Z,6.23
2022-10-17T11:25:22.008Z,4.73
2022-10-17T11:27:50.204Z,25.90
2022-10-17T11:30:18.724Z,5.50
2022-10-17T11:32:50.740Z,8.43
2022-10-17T11:35:24.731Z,11.10
2022-10-17T11:38:00.080Z,5.00
2022-10-17T11:40:32.843Z,7.00
2022-10-17T11:43:02.919Z,5.67
2022-10-17T11:45:36.516Z,6.10
2022-10-17T11:48:11.543Z,9.63
2022-10-17T11:53:40.380Z,6.17
2022-10-17T11:56:12.386Z,9.83
2022-10-17T11:58:47.369Z,6.03
2022-10-17T12:01:23.657Z,3.70
2022-10-17T12:04:18.048Z,5.23
2022-10-17T12:07:01.117Z,7.40
2022-10-17T12:09:41.916Z,12.53
2022-10-17T12:12:10.277Z,5.13
2022-10-17T12:14:43.837Z,3.53
2022-10-17T12:17:30.357Z,5.53
2022-10-17T12:20:27.277Z,7.40
2022-10-17T12:22:57.091Z,6.03
2022-10-17T12:25:31.412Z,8.90
2022-10-17T12:28:14.275Z,10.47
2022-10-17T12:30:58.330Z,7.17
2022-10-17T12:33:35.699Z,8.90
2022-10-17T12:36:37.270Z,5.70
2022-10-17T12:39:50.543Z,4.77
2022-10-17T12:42:48.614Z,9.63
2022-10-17T12:45:49.172Z,13.50
2022-10-17T12:48:52.969Z,7.07
2022-10-17T12:51:35.315Z,9.30
2022-10-17T12:54:12.945Z,9.10
2022-10-17T12:56:43.562Z,7.83
2022-10-17T12:59:17.449Z,6.83
2022-10-17T13:01:48.068Z,4.00
2022-10-17T13:04:16.898Z,10.03
2022-10-17T13:06:48.036Z,6.90
2022-10-17T13:09:25.761Z,9.23
2022-10-17T13:11:55.359Z,7.70
2022-10-17T13:14:26.570Z,6.03
2022-10-17T13:16:57.426Z,5.00
2022-10-17T13:19:30.308Z,6.40
2022-10-17T13:22:06.349Z,5.60
2022-10-17T13:24:37.977Z,6.73
2022-10-17T13:27:07.664Z,3.33
2022-10-17T13:29:44.806Z,7.30
2022-10-17T13:32:13.263Z,9.40
2022-10-17T13:34:41.314Z,5.87
2022-10-17T13:37:14.479Z,7.90
2022-10-17T13:39:55.232Z,7.97
2022-10-17T13:42:28.482Z,9.47
2022-10-17T13:44:59.407Z,11.83
2022-10-17T13:47:29.590Z,13.63
2022-10-17T13:49:58.812Z,6.80
2022-10-17T13:52:29.972Z,8.37
2022-10-17T13:55:09.893Z,14.00
2022-10-17T13:57:39.160Z,5.73
2022-10-17T14:00:18.782Z,8.37
2022-10-17T14:02:48.082Z,5.10
2022-10-17T14:05:19.456Z,13.47
2022-10-17T14:10:43.082Z,6.80
2022-10-17T14:13:22.987Z,7.70
2022-10-17T14:15:53.569Z,7.23
2022-10-17T14:18:25.412Z,7.40
2022-10-17T14:23:45.131Z,6.47
2022-10-17T14:26:16.887Z,15.33
2022-10-17T14:28:47.034Z,5.77
2022-10-17T14:31:26.562Z,5.60
2022-10-17T14:33:55.617Z,15.20
2022-10-17T14:36:37.134Z,13.63
2022-10-17T14:39:11.854Z,6.67
2022-10-17T14:41:46.179Z,13.03
2022-10-17T14:44:22.523Z,6.57
2022-10-17T14:46:55.462Z,8.97
2022-10-17T14:49:35.472Z,8.70
2022-10-17T14:52:29.261Z,12.10
2022-10-17T14:54:58.415Z,5.63
2022-10-17T14:57:41.830Z,5.57
2022-10-17T15:00:14.838Z,8.53
2022-10-17T15:02:45.138Z,7.67
2022-10-17T15:05:13.763Z,9.63
2022-10-17T15:07:42.488Z,12.70
2022-10-17T15:10:28.262Z,9.80
2022-10-17T15:12:59.315Z,14.37
2022-10-17T15:15:33.343Z,7.47
2022-10-17T15:18:02.793Z,10.73
2022-10-17T15:20:31.635Z,8.93
2022-10-17T15:23:01.163Z,4.80
2022-10-17T15:25:30.648Z,9.57
2022-10-17T15:27:59.576Z,6.60
2022-10-17T15:30:30.005Z,4.07
2022-10-17T15:32:58.810Z,7.77
2022-10-17T15:35:29.120Z,12.50
2022-10-17T15:37:57.134Z,5.33
2022-10-17T15:40:28.141Z,6.70
2022-10-17T15:42:57.257Z,4.90
2022-10-17T15:45:25.391Z,4.97
2022-10-17T15:47:55.500Z,8.23
2022-10-17T15:50:24.070Z,7.60
2022-10-17T15:52:53.641Z,5.30
2022-10-17T15:55:21.685Z,7.30
2022-10-17T15:57:50.281Z,9.47
2022-10-17T16:00:20.718Z,5.80
2022-10-17T16:02:50.172Z,9.70
2022-10-17T16:05:23.146Z,5.20
2022-10-17T16:07:53.252Z,6.87
2022-10-17T16:10:22.478Z,11.93
2022-10-17T16:12:50.862Z,10.63
2022-10-17T16:15:22.722Z,11.37
2022-10-17T16:17:51.246Z,5.73
2022-10-17T16:20:19.576Z,8.40
2022-10-17T16:22:48.433Z,7.43
2022-10-17T16:25:22.864Z,7.90
2022-10-17T16:27:54.356Z,6.13
2022-10-17T16:30:24.667Z,9.63
2022-10-17T16:32:53.144Z,5.57
2022-10-17T16:35:24.103Z,7.60
2022-10-17T16:37:52.170Z,8.20
2022-10-17T16:40:21.783Z,10.93
2022-10-17T16:42:49.924Z,6.90
2022-10-17T16:45:20.152Z,10.63
2022-10-17T16:47:49.084Z,7.40
2022-10-17T16:50:17.419Z,10.00
2022-10-17T16:52:45.524Z,5.03
2022-10-17T16:55:13.640Z,6.63
2022-10-17T17:00:18.952Z,13.73
2022-10-17T17:02:49.325Z,7.33
2022-10-17T17:05:17.465Z,14.53
2022-10-17T17:07:47.684Z,6.67
2022-10-17T17:10:15.789Z,9.57
2022-10-17T17:12:45.231Z,3.83
2022-10-17T17:15:13.310Z,14.83
2022-10-17T17:17:52.249Z,11.50
2022-10-17T17:20:21.483Z,6.27
2022-10-17T17:22:50.724Z,8.23
2022-10-17T17:25:18.820Z,7.53
2022-10-17T17:27:48.270Z,7.30
2022-10-17T17:30:16.679Z,5.37
2022-10-17T17:32:44.757Z,5.20
2022-10-17T17:35:12.886Z,6.63
2022-10-17T17:37:41.046Z,9.17
2022-10-17T17:40:09.994Z,10.60
2022-10-17T17:42:38.029Z,10.30
2022-10-17T17:45:08.993Z,5.47
2022-10-17T17:47:37.190Z,11.73
2022-10-17T17:50:05.868Z,5.30
2022-10-17T17:52:33.924Z,11.83
2022-10-17T17:55:01.918Z,8.53
2022-10-17T17:57:31.022Z,17.43
2022-10-17T17:59:59.015Z,7.40
2022-10-17T18:02:28.783Z,9.83
2022-10-17T18:04:57.047Z,14.37
2022-10-17T18:07:25.153Z,9.03
2022-10-17T18:09:53.187Z,6.73
2022-10-17T18:12:21.378Z,3.70
2022-10-17T18:14:49.534Z,10.43
2022-10-17T18:17:17.613Z,13.50
2022-10-17T18:19:50.566Z,6.60
2022-10-17T18:22:18.579Z,13.87
2022-10-17T18:24:46.613Z,8.47
2022-10-17T18:27:15.930Z,9.87
2022-10-17T18:29:45.705Z,7.20
2022-10-17T18:32:14.175Z,8.10
2022-10-17T18:34:42.861Z,16.60
2022-10-17T18:37:12.405Z,12.63
2022-10-17T18:39:40.494Z,9.23
2022-10-17T18:42:08.797Z,14.97
2022-10-17T18:44:36.818Z,10.57
2022-10-17T18:47:04.893Z,9.60
2022-10-17T18:49:32.951Z,11.37
2022-10-17T18:52:01.056Z,8.73
2022-10-17T18:54:33.318Z,12.63
2022-10-17T18:57:01.884Z,9.50
2022-10-17T18:59:30.098Z,11.70
2022-10-17T19:01:58.198Z,11.93
2022-10-17T19:04:27.360Z,8.23
2022-10-17T19:06:55.412Z,5.77
2022-10-17T19:09:23.639Z,11.20
2022-10-17T19:11:53.077Z,11.90
2022-10-17T19:14:23.581Z,9.93
2022-10-17T19:16:51.938Z,21.33
2022-10-17T19:19:22.546Z,18.87
2022-10-17T19:21:51.718Z,6.47
2022-10-17T19:24:22.725Z,11.73
2022-10-17T19:26:55.992Z,9.70
2022-10-17T19:29:31.173Z,8.83
2022-10-17T19:32:02.481Z,7.13
2022-10-17T19:34:30.889Z,7.50
2022-10-17T19:36:59.724Z,17.80
2022-10-17T19:39:33.157Z,7.47
2022-10-17T19:42:06.692Z,9.03
2022-10-17T19:44:38.681Z,9.57
2022-10-17T19:47:06.929Z,10.00
2022-10-17T19:49:35.047Z,13.33
2022-10-17T19:52:03.240Z,4.80
2022-10-17T19:54:31.529Z,15.97
2022-10-17T19:56:59.640Z,4.77
2022-10-17T19:59:29.686Z,5.10
2022-10-17T20:01:57.894Z,19.53
2022-10-17T20:04:26.027Z,10.37
2022-10-17T20:06:55.391Z,11.40
2022-10-17T20:09:25.041Z,7.17
2022-10-17T20:11:53.155Z,9.20
2022-10-17T20:14:21.213Z,5.60
2022-10-17T20:16:53.309Z,8.77
2022-10-17T20:19:21.607Z,10.93
2022-10-17T20:21:49.560Z,11.33
2022-10-17T20:24:18.189Z,13.63
2022-10-17T20:26:46.574Z,8.57
2022-10-17T20:29:17.278Z,11.27
2022-10-17T20:31:46.655Z,8.73
2022-10-17T20:34:18.094Z,11.33
2022-10-17T20:36:46.648Z,10.00
2022-10-17T20:39:16.582Z,12.90
2022-10-17T20:41:45.402Z,8.77
2022-10-17T20:44:14.095Z,8.73
2022-10-17T20:46:48.700Z,10.07
2022-10-17T20:49:30.425Z,14.33
2022-10-17T20:51:58.734Z,11.67
2022-10-17T20:54:28.215Z,8.20
2022-10-17T20:56:58.693Z,6.77
2022-10-17T20:59:29.315Z,12.47
2022-10-17T21:01:57.365Z,13.93
2022-10-17T21:04:45.266Z,10.50
2022-10-17T21:07:14.797Z,6.00
2022-10-17T21:09:42.856Z,11.33
2022-10-17T21:12:10.795Z,6.80
2022-10-17T21:14:38.836Z,13.93
2022-10-17T21:17:06.847Z,18.97
2022-10-17T21:19:35.245Z,8.80
2022-10-17T21:22:03.221Z,6.40
2022-10-17T21:24:32.761Z,10.73
2022-10-17T21:27:00.792Z,6.67
2022-10-17T21:29:28.844Z,9.20
2022-10-17T21:31:56.997Z,11.13
2022-10-17T21:34:25.496Z,9.23
2022-10-17T21:36:54.113Z,19.77
2022-10-17T21:39:23.938Z,7.33
2022-10-17T21:41:54.356Z,10.30
2022-10-17T21:44:23.720Z,20.83
2022-10-17T21:46:52.879Z,11.37
2022-10-17T21:49:22.597Z,5.30
2022-10-17T21:51:51.362Z,18.60
2022-10-17T21:54:20.669Z,5.97
2022-10-17T21:56:48.640Z,15.33
2022-10-17T21:59:18.158Z,8.37
2022-10-17T22:01:47.147Z,13.23
2022-10-17T22:04:17.051Z,19.57
2022-10-17T22:06:50.848Z,9.20
2022-10-17T22:09:20.903Z,8.30
2022-10-17T22:11:51.051Z,6.47
2022-10-17T22:14:21.822Z,11.20
2022-10-17T22:16:50.635Z,10.73
2022-10-17T22:19:26.945Z,11.30
2022-10-17T22:21:55.717Z,8.30
2022-10-17T22:24:24.356Z,6.83
2022-10-17T22:26:52.586Z,11.93
2022-10-17T22:29:22.046Z,7.90
2022-10-17T22:31:50.297Z,6.70
2022-10-17T22:34:19.178Z,6.80
2022-10-17T22:36:47.686Z,8.77
2022-10-17T22:39:15.722Z,11.70
2022-10-17T22:41:43.862Z,9.43
2022-10-17T22:44:11.850Z,14.83
2022-10-17T22:46:41.238Z,12.17
2022-10-17T22:49:09.424Z,15.40
2022-10-17T22:51:37.413Z,19.70
2022-10-17T22:54:05.523Z,15.70
2022-10-17T22:56:33.499Z,12.13
2022-10-17T22:59:01.523Z,17.90
2022-10-17T23:01:29.584Z,15.47
2022-10-17T23:03:58.992Z,15.70
2022-10-17T23:06:26.977Z,20.50
2022-10-17T23:08:55.330Z,13.60
2022-10-17T23:11:23.641Z,12.27
2022-10-17T23:13:51.643Z,15.10
2022-10-17T23:16:19.651Z,12.70
2022-10-17T23:18:47.767Z,20.10
2022-10-17T23:21:17.127Z,20.43
2022-10-17T23:23:45.160Z,12.90
2022-10-17T23:26:14.879Z,12.00
2022-10-17T23:28:44.175Z,23.93
2022-10-17T23:31:14.272Z,9.93
2022-10-17T23:33:44.650Z,16.90
2022-10-17T23:36:13.535Z,15.13
2022-10-17T23:38:44.110Z,15.47
2022-10-17T23:41:12.471Z,19.60
2022-10-17T23:43:40.619Z,10.53
2022-10-17T23:46:09.420Z,12.47
2022-10-17T23:48:38.637Z,16.50
2022-10-17T23:51:07.360Z,14.53
2022-10-17T23:53:35.815Z,16.10
2022-10-17T23:56:05.708Z,15.43
2022-10-17T23:58:33.896Z,12.67
